Aigle Des Mers — FO4883 — position and weather

sailwx.info

Track history (hours):
 
Tides and Currents Weather Stations Pressure Air Temp Water Temp Dewpoint Dewpoint Depression Visibility Wind Speed Wind Dir Waves Ship Positions

Aigle Des Mers

Last reported at 2014-Sep-30 23:33 UTC. Time now 2014-Oct-01 10:19 UTC.
Position N 48°06' W 004°19'.

Length 16 m.

Type: Fishing. MMSI: 227318010.

Date/timePositionNaut miles runAvg speedWind from/ knotsBaromVisibWave heightAir tempDewpointWater temp
2014-Sep-30 23:33N 48°06' W 004°19'0 0.1
2014-Sep-30 22:33N 48°06' W 004°19'0 0.0
2014-Sep-30 21:33N 48°06' W 004°19'3 2.8
2014-Sep-30 20:33N 48°08' W 004°22'2 2.2
2014-Sep-30 19:33N 48°09' W 004°25'1 0.9
2014-Sep-30 18:32N 48°09' W 004°26'5 5.3
2014-Sep-30 17:33N 48°06' W 004°19'0 0.0
2014-Sep-30 06:33N 48°06' W 004°19'0 0.1
2014-Sep-30 05:34N 48°06' W 004°19'0 0.0
2014-Sep-30 04:33N 48°06' W 004°19'0 0.0
2014-Sep-30 03:34N 48°06' W 004°19'0 0.0
2014-Sep-30 02:33N 48°06' W 004°19'4 4.0
2014-Sep-30 01:33N 48°08' W 004°25'9 8.9
2014-Sep-30 00:33N 48°10' W 004°38'9 8.8
2014-Sep-29 23:33N 48°14' W 004°50'4 4.1
2014-Sep-29 22:33N 48°16' W 004°55'0 0.5
2014-Sep-29 21:33N 48°16' W 004°54'8 7.9
2014-Sep-29 20:34N 48°12' W 004°44'9 8.4
2014-Sep-29 19:28N 48°09' W 004°31'6 6.1
2014-Sep-29 18:33N 48°08' W 004°23'2 1.7
2014-Sep-29 17:33N 48°07' W 004°20'2 0.1
2014-Sep-29 05:33N 48°06' W 004°19'0 0.1
2014-Sep-29 04:33N 48°06' W 004°19'0 0.0
2014-Sep-29 03:33N 48°06' W 004°19'0 0.0
2014-Sep-29 02:33N 48°06' W 004°19'3 2.6
2014-Sep-29 01:33N 48°07' W 004°23'9 9.0
2014-Sep-29 00:33N 48°10' W 004°36'9 8.6
2014-Sep-28 23:34N 48°14' W 004°47'6 6.2
2014-Sep-28 22:33N 48°18' W 004°54'1 1.0
2014-Sep-28 21:23N 48°17' W 004°53'1 1.5
2014-Sep-28 20:33N 48°17' W 004°52'8 7.9
2014-Sep-28 19:33N 48°11' W 004°43'10 7.7
2014-Sep-28 18:15N 48°06' W 004°29'7 7.8
2014-Sep-28 17:22N 48°06' W 004°19'  
2014-Sep-26 08:12N 48°06' W 004°20'0 0.0
2014-Sep-26 07:33N 48°06' W 004°20'4 3.7
2014-Sep-26 06:33N 48°07' W 004°25'1 1.3
2014-Sep-26 05:33N 48°07' W 004°27'4 3.7
2014-Sep-26 04:33N 48°06' W 004°32'3 3.1
2014-Sep-26 03:33N 48°07' W 004°27'5 4.5
2014-Sep-26 02:33N 48°10' W 004°24'2 2.0
2014-Sep-26 01:33N 48°12' W 004°22'5 5.0
2014-Sep-26 00:33N 48°07' W 004°19'1 1.3
2014-Sep-25 23:33N 48°06' W 004°19'0 0.4
2014-Sep-25 22:33N 48°06' W 004°20'4 4.0
2014-Sep-25 21:33N 48°07' W 004°25'0 0.3
2014-Sep-25 20:33N 48°07' W 004°25'3 3.1
2014-Sep-25 19:33N 48°06' W 004°29'2 2.1
2014-Sep-25 18:33N 48°08' W 004°30'5 5.4
2014-Sep-25 17:33N 48°08' W 004°22'3 0.3
2014-Sep-25 09:28N 48°06' W 004°20'0 0.0
2014-Sep-25 08:33N 48°06' W 004°20'0 0.0
2014-Sep-25 07:33N 48°06' W 004°20'1 0.6
2014-Sep-25 06:33N 48°06' W 004°19'4 3.5
2014-Sep-25 05:33N 48°10' W 004°22'1 1.0
2014-Sep-25 04:33N 48°09' W 004°21'0 0.4
2014-Sep-25 03:33N 48°08' W 004°22'2 1.5
2014-Sep-25 02:33N 48°08' W 004°24'1 0.6
2014-Sep-25 01:30N 48°07' W 004°24'2 1.8
2014-Sep-25 00:33N 48°09' W 004°24'21 0.5
2014-Sep-23 05:34N 47°50' W 004°37'2 1.8
2014-Sep-23 04:33N 47°52' W 004°37'9 0.4
2014-Sep-22 06:34N 47°51' W 004°24'5 2.6
2014-Sep-22 04:33N 47°56' W 004°27'7 7.4
2014-Sep-22 03:33N 47°51' W 004°36'2 1.1
2014-Sep-22 01:33N 47°51' W 004°32'14 3.6
2014-Sep-21 21:33N 47°59' W 004°50'21 6.9
2014-Sep-21 18:33N 47°49' W 004°23'  
Track history (hours):
 
Tides and Currents Weather Stations Pressure Air Temp Water Temp Dewpoint Dewpoint Depression Visibility Wind Speed Wind Dir Waves Ship Positions

Aigle Des Mers

Last reported at 2014-Sep-30 23:33 UTC. Time now 2014-Oct-01 10:19 UTC.
Position N 48°06' W 004°19'.

Length 16 m.

Type: Fishing. MMSI: 227318010.

Date/timePositionNaut miles runAvg speedWind from/ knotsBaromVisibWave heightAir tempDewpointWater temp
2014-Sep-30 23:33N 48°06' W 004°19'0 0.1
2014-Sep-30 22:33N 48°06' W 004°19'0 0.0
2014-Sep-30 21:33N 48°06' W 004°19'3 2.8
2014-Sep-30 20:33N 48°08' W 004°22'2 2.2
2014-Sep-30 19:33N 48°09' W 004°25'1 0.9
2014-Sep-30 18:32N 48°09' W 004°26'5 5.3
2014-Sep-30 17:33N 48°06' W 004°19'0 0.0
2014-Sep-30 06:33N 48°06' W 004°19'0 0.1
2014-Sep-30 05:34N 48°06' W 004°19'0 0.0
2014-Sep-30 04:33N 48°06' W 004°19'0 0.0
2014-Sep-30 03:34N 48°06' W 004°19'0 0.0
2014-Sep-30 02:33N 48°06' W 004°19'4 4.0
2014-Sep-30 01:33N 48°08' W 004°25'9 8.9
2014-Sep-30 00:33N 48°10' W 004°38'9 8.8
2014-Sep-29 23:33N 48°14' W 004°50'4 4.1
2014-Sep-29 22:33N 48°16' W 004°55'0 0.5
2014-Sep-29 21:33N 48°16' W 004°54'8 7.9
2014-Sep-29 20:34N 48°12' W 004°44'9 8.4
2014-Sep-29 19:28N 48°09' W 004°31'6 6.1
2014-Sep-29 18:33N 48°08' W 004°23'2 1.7
2014-Sep-29 17:33N 48°07' W 004°20'2 0.1
2014-Sep-29 05:33N 48°06' W 004°19'0 0.1
2014-Sep-29 04:33N 48°06' W 004°19'0 0.0
2014-Sep-29 03:33N 48°06' W 004°19'0 0.0
2014-Sep-29 02:33N 48°06' W 004°19'3 2.6
2014-Sep-29 01:33N 48°07' W 004°23'9 9.0
2014-Sep-29 00:33N 48°10' W 004°36'9 8.6
2014-Sep-28 23:34N 48°14' W 004°47'6 6.2
2014-Sep-28 22:33N 48°18' W 004°54'1 1.0
2014-Sep-28 21:23N 48°17' W 004°53'1 1.5
2014-Sep-28 20:33N 48°17' W 004°52'8 7.9
2014-Sep-28 19:33N 48°11' W 004°43'10 7.7
2014-Sep-28 18:15N 48°06' W 004°29'7 7.8
2014-Sep-28 17:22N 48°06' W 004°19'  
2014-Sep-26 08:12N 48°06' W 004°20'0 0.0
2014-Sep-26 07:33N 48°06' W 004°20'4 3.7
2014-Sep-26 06:33N 48°07' W 004°25'1 1.3
2014-Sep-26 05:33N 48°07' W 004°27'4 3.7
2014-Sep-26 04:33N 48°06' W 004°32'3 3.1
2014-Sep-26 03:33N 48°07' W 004°27'5 4.5
2014-Sep-26 02:33N 48°10' W 004°24'2 2.0
2014-Sep-26 01:33N 48°12' W 004°22'5 5.0
2014-Sep-26 00:33N 48°07' W 004°19'1 1.3
2014-Sep-25 23:33N 48°06' W 004°19'0 0.4
2014-Sep-25 22:33N 48°06' W 004°20'4 4.0
2014-Sep-25 21:33N 48°07' W 004°25'0 0.3
2014-Sep-25 20:33N 48°07' W 004°25'3 3.1
2014-Sep-25 19:33N 48°06' W 004°29'2 2.1
2014-Sep-25 18:33N 48°08' W 004°30'5 5.4
2014-Sep-25 17:33N 48°08' W 004°22'3 0.3
2014-Sep-25 09:28N 48°06' W 004°20'0 0.0
2014-Sep-25 08:33N 48°06' W 004°20'0 0.0
2014-Sep-25 07:33N 48°06' W 004°20'1 0.6
2014-Sep-25 06:33N 48°06' W 004°19'4 3.5
2014-Sep-25 05:33N 48°10' W 004°22'1 1.0
2014-Sep-25 04:33N 48°09' W 004°21'0 0.4
2014-Sep-25 03:33N 48°08' W 004°22'2 1.5
2014-Sep-25 02:33N 48°08' W 004°24'1 0.6
2014-Sep-25 01:30N 48°07' W 004°24'2 1.8
2014-Sep-25 00:33N 48°09' W 004°24'21 0.5
2014-Sep-23 05:34N 47°50' W 004°37'2 1.8
2014-Sep-23 04:33N 47°52' W 004°37'9 0.4
2014-Sep-22 06:34N 47°51' W 004°24'5 2.6
2014-Sep-22 04:33N 47°56' W 004°27'7 7.4
2014-Sep-22 03:33N 47°51' W 004°36'2 1.1
2014-Sep-22 01:33N 47°51' W 004°32'14 3.6
2014-Sep-21 21:33N 47°59' W 004°50'21 6.9
2014-Sep-21 18:33N 47°49' W 004°23'  

Dump ship's entire track history